createdAt,value
2022-07-29T00:00:09.575Z,0.47
2022-07-29T00:02:38.092Z,0.60
2022-07-29T00:05:10.061Z,0.70
2022-07-29T00:07:40.677Z,0.68
2022-07-29T00:10:09.160Z,0.50
2022-07-29T00:12:37.535Z,0.55
2022-07-29T00:15:07.209Z,0.40
2022-07-29T00:17:35.569Z,0.30
2022-07-29T00:20:03.681Z,0.90
2022-07-29T00:25:26.970Z,0.40
2022-07-29T00:27:57.479Z,0.30
2022-07-29T00:30:25.714Z,0.40
2022-07-29T00:32:54.138Z,0.32
2022-07-29T00:35:42.227Z,0.50
2022-07-29T00:38:13.696Z,0.85
2022-07-29T00:40:45.763Z,0.50
2022-07-29T00:43:17.400Z,0.65
2022-07-29T00:45:47.858Z,0.25
2022-07-29T00:48:16.656Z,0.50
2022-07-29T00:50:47.481Z,0.73
2022-07-29T00:53:15.656Z,0.30
2022-07-29T00:55:45.277Z,0.47
2022-07-29T00:58:15.148Z,0.40
2022-07-29T01:00:45.591Z,0.30
2022-07-29T01:03:13.926Z,0.43
2022-07-29T01:05:50.106Z,0.40
2022-07-29T01:08:22.803Z,0.50
2022-07-29T01:10:53.053Z,0.93
2022-07-29T01:13:23.503Z,0.45
2022-07-29T01:16:01.283Z,0.22
2022-07-29T01:18:35.599Z,0.85
2022-07-29T01:21:26.679Z,1.25
2022-07-29T01:24:14.107Z,0.75
2022-07-29T01:26:50.007Z,0.90
2022-07-29T01:29:38.622Z,0.40
2022-07-29T01:32:20.269Z,0.60
2022-07-29T01:35:04.196Z,0.55
2022-07-29T01:37:40.606Z,0.90
2022-07-29T01:40:15.212Z,0.45
2022-07-29T01:42:46.418Z,0.47
2022-07-29T01:45:22.517Z,0.52
2022-07-29T01:48:02.098Z,0.40
2022-07-29T01:50:36.649Z,0.65
2022-07-29T01:53:06.835Z,0.63
2022-07-29T01:55:44.300Z,0.60
2022-07-29T01:58:14.673Z,0.67
2022-07-29T02:00:47.443Z,0.95
2022-07-29T02:03:18.098Z,0.70
2022-07-29T02:05:49.075Z,0.47
2022-07-29T02:08:20.682Z,0.45
2022-07-29T02:10:50.580Z,0.50
2022-07-29T02:13:20.407Z,1.05
2022-07-29T02:15:52.371Z,0.65
2022-07-29T02:18:25.056Z,0.30
2022-07-29T02:20:58.945Z,1.00
2022-07-29T02:23:28.123Z,1.65
2022-07-29T02:25:58.983Z,0.45
2022-07-29T02:28:33.123Z,0.30
2022-07-29T02:31:05.774Z,0.50
2022-07-29T02:33:34.694Z,0.38
2022-07-29T02:36:03.925Z,0.47
2022-07-29T02:38:54.608Z,1.05
2022-07-29T02:41:26.691Z,0.63
2022-07-29T02:43:59.454Z,0.65
2022-07-29T02:46:34.533Z,1.50
2022-07-29T02:49:11.178Z,1.13
2022-07-29T02:51:45.789Z,0.28
2022-07-29T02:54:24.831Z,0.30
2022-07-29T02:56:56.643Z,0.60
2022-07-29T02:59:32.985Z,0.75
2022-07-29T03:02:07.314Z,0.85
2022-07-29T03:04:36.972Z,0.28
2022-07-29T03:07:07.093Z,0.95
2022-07-29T03:09:36.227Z,0.45
2022-07-29T03:12:06.491Z,0.63
2022-07-29T03:14:39.019Z,0.68
2022-07-29T03:17:09.449Z,0.70
2022-07-29T03:19:38.406Z,0.73
2022-07-29T03:22:07.085Z,1.10
2022-07-29T03:24:37.738Z,0.40
2022-07-29T03:27:07.358Z,0.45
2022-07-29T03:29:35.704Z,1.15
2022-07-29T03:32:07.977Z,0.50
2022-07-29T03:34:39.439Z,0.55
2022-07-29T03:37:08.031Z,0.52
2022-07-29T03:39:41.025Z,0.40
2022-07-29T03:42:17.590Z,0.70
2022-07-29T03:44:49.555Z,0.60
2022-07-29T03:47:23.408Z,1.10
2022-07-29T03:50:16.076Z,0.60
2022-07-29T03:52:45.437Z,1.38
2022-07-29T03:55:14.235Z,0.50
2022-07-29T03:57:43.965Z,1.10
2022-07-29T04:00:16.483Z,0.70
2022-07-29T04:02:49.630Z,0.60
2022-07-29T04:05:22.159Z,0.85
2022-07-29T04:07:51.111Z,0.45
2022-07-29T04:10:30.401Z,0.88
2022-07-29T04:13:03.138Z,0.63
2022-07-29T04:15:31.974Z,0.60
2022-07-29T04:18:02.676Z,0.70
2022-07-29T04:20:32.158Z,0.40
2022-07-29T04:23:00.258Z,0.63
2022-07-29T04:25:33.181Z,0.52
2022-07-29T04:28:04.090Z,0.77
2022-07-29T04:30:33.858Z,0.77
2022-07-29T04:33:02.820Z,0.73
2022-07-29T04:35:37.968Z,0.63
2022-07-29T04:38:07.017Z,0.90
2022-07-29T04:40:35.812Z,0.88
2022-07-29T04:43:09.442Z,0.43
2022-07-29T04:45:40.022Z,0.60
2022-07-29T04:48:10.998Z,1.33
2022-07-29T04:50:42.155Z,0.90
2022-07-29T04:55:40.786Z,1.85
2022-07-29T04:58:09.976Z,1.67
2022-07-29T05:00:38.695Z,1.02
2022-07-29T05:03:07.175Z,1.15
2022-07-29T05:05:38.010Z,1.67
2022-07-29T05:08:07.598Z,1.20
2022-07-29T05:10:39.189Z,2.20
2022-07-29T05:13:07.914Z,1.10
2022-07-29T05:15:37.224Z,1.25
2022-07-29T05:18:06.424Z,2.78
2022-07-29T05:20:35.581Z,1.80
2022-07-29T05:26:26.996Z,1.50
2022-07-29T05:28:55.851Z,1.55
2022-07-29T05:31:24.180Z,1.90
2022-07-29T05:33:52.567Z,1.50
2022-07-29T05:36:23.125Z,1.02
2022-07-29T05:38:54.146Z,0.95
2022-07-29T05:41:22.778Z,0.80
2022-07-29T05:43:52.296Z,0.75
2022-07-29T05:46:20.790Z,0.75
2022-07-29T05:48:48.863Z,0.50
2022-07-29T05:51:17.228Z,0.65
2022-07-29T05:53:45.915Z,0.50
2022-07-29T05:56:14.497Z,0.85
2022-07-29T05:58:42.815Z,1.38
2022-07-29T06:01:12.384Z,0.63
2022-07-29T06:03:42.328Z,1.60
2022-07-29T06:06:10.453Z,0.65
2022-07-29T06:08:39.655Z,1.65
2022-07-29T06:11:08.728Z,0.82
2022-07-29T06:13:37.003Z,2.03
2022-07-29T06:16:05.801Z,1.20
2022-07-29T06:18:36.199Z,0.70
2022-07-29T06:21:09.922Z,0.80
2022-07-29T06:23:38.952Z,0.82
2022-07-29T06:26:07.431Z,1.00
2022-07-29T06:28:35.673Z,0.80
2022-07-29T06:31:03.890Z,0.95
2022-07-29T06:33:32.275Z,0.60
2022-07-29T06:36:05.958Z,1.00
2022-07-29T06:38:40.611Z,1.00
2022-07-29T06:41:16.797Z,0.90
2022-07-29T06:43:52.139Z,1.47
2022-07-29T06:46:23.762Z,1.33
2022-07-29T06:48:53.740Z,1.30
2022-07-29T06:51:24.397Z,1.55
2022-07-29T06:53:59.046Z,1.23
2022-07-29T06:56:31.529Z,1.00
2022-07-29T06:58:59.797Z,1.08
2022-07-29T07:01:30.052Z,1.45
2022-07-29T07:03:58.475Z,1.02
2022-07-29T07:06:28.541Z,0.93
2022-07-29T07:08:56.846Z,0.90
2022-07-29T07:11:25.229Z,1.23
2022-07-29T07:13:53.617Z,0.82
2022-07-29T07:16:21.697Z,0.95
2022-07-29T07:18:50.087Z,1.10
2022-07-29T07:21:19.238Z,1.08
2022-07-29T07:23:51.502Z,0.82
2022-07-29T07:26:19.980Z,0.98
2022-07-29T07:28:48.035Z,0.60
2022-07-29T07:31:16.260Z,1.05
2022-07-29T07:33:46.643Z,0.82
2022-07-29T07:36:14.958Z,0.70
2022-07-29T07:38:43.331Z,0.75
2022-07-29T07:41:12.708Z,0.77
2022-07-29T07:43:40.957Z,1.30
2022-07-29T07:46:09.347Z,0.80
2022-07-29T07:48:37.537Z,1.23
2022-07-29T07:51:06.357Z,0.93
2022-07-29T07:53:34.652Z,1.05
2022-07-29T07:56:10.910Z,1.00
2022-07-29T07:58:41.376Z,1.23
2022-07-29T08:01:09.878Z,1.10
2022-07-29T08:03:38.386Z,0.90
2022-07-29T08:06:07.095Z,0.80
2022-07-29T08:08:35.150Z,1.25
2022-07-29T08:11:09.856Z,1.70
2022-07-29T08:13:39.371Z,0.90
2022-07-29T08:16:16.883Z,1.00
2022-07-29T08:18:46.568Z,1.00
2022-07-29T08:21:15.579Z,0.70
2022-07-29T08:23:59.671Z,1.10
2022-07-29T08:26:29.044Z,0.90
2022-07-29T08:28:57.528Z,0.80
2022-07-29T08:31:29.080Z,0.77
2022-07-29T08:34:00.803Z,1.20
2022-07-29T08:36:31.267Z,0.95
2022-07-29T08:39:00.093Z,1.90
2022-07-29T08:41:28.453Z,0.90
2022-07-29T08:43:57.016Z,2.00
2022-07-29T08:46:29.560Z,1.10
2022-07-29T08:48:57.686Z,1.30
2022-07-29T08:51:28.999Z,1.10
2022-07-29T08:54:02.704Z,0.95
2022-07-29T08:56:31.882Z,1.10
2022-07-29T08:59:01.002Z,1.10
2022-07-29T09:01:42.660Z,0.60
2022-07-29T09:04:16.743Z,1.20
2022-07-29T09:06:48.182Z,0.43
2022-07-29T09:09:19.184Z,1.13
2022-07-29T09:11:49.806Z,0.75
2022-07-29T09:14:18.083Z,0.90
2022-07-29T09:16:54.250Z,1.30
2022-07-29T09:19:31.309Z,1.35
2022-07-29T09:22:04.152Z,1.38
2022-07-29T09:24:41.718Z,1.25
2022-07-29T09:27:22.124Z,1.25
2022-07-29T09:29:58.301Z,1.20
2022-07-29T09:32:29.056Z,1.27
2022-07-29T09:35:20.628Z,1.30
2022-07-29T09:37:51.150Z,1.70
2022-07-29T09:40:20.913Z,1.33
2022-07-29T09:42:49.642Z,1.50
2022-07-29T09:45:29.283Z,1.27
2022-07-29T09:48:01.508Z,1.83
2022-07-29T09:50:41.063Z,2.20
2022-07-29T09:53:11.178Z,1.80
2022-07-29T09:55:50.618Z,2.05
2022-07-29T09:58:21.432Z,1.40
2022-07-29T10:00:50.700Z,1.58
2022-07-29T10:06:07.024Z,1.33
2022-07-29T10:08:35.637Z,1.25
2022-07-29T10:11:14.522Z,1.85
2022-07-29T10:13:46.678Z,1.77
2022-07-29T10:16:16.203Z,1.20
2022-07-29T10:18:47.896Z,1.30
2022-07-29T10:21:35.263Z,1.35
2022-07-29T10:27:27.037Z,1.58
2022-07-29T10:29:56.305Z,1.10
2022-07-29T10:32:41.607Z,0.90
2022-07-29T10:35:24.209Z,0.90
2022-07-29T10:38:16.537Z,1.05
2022-07-29T10:41:12.598Z,1.00
2022-07-29T10:43:51.187Z,1.53
2022-07-29T10:46:25.587Z,1.30
2022-07-29T10:49:10.015Z,1.20
2022-07-29T10:52:10.616Z,1.20
2022-07-29T10:54:54.674Z,1.20
2022-07-29T10:57:54.151Z,1.50
2022-07-29T11:00:32.473Z,1.98
2022-07-29T11:03:04.689Z,0.73
2022-07-29T11:05:56.315Z,1.75
2022-07-29T11:08:31.923Z,1.77
2022-07-29T11:11:38.100Z,2.40
2022-07-29T11:17:06.556Z,1.02
2022-07-29T11:19:37.346Z,1.00
2022-07-29T11:22:10.407Z,1.45
2022-07-29T11:24:50.079Z,0.88
2022-07-29T11:27:21.027Z,1.10
2022-07-29T11:29:56.773Z,0.80
2022-07-29T11:32:29.507Z,0.90
2022-07-29T11:35:18.666Z,0.70
2022-07-29T11:37:52.821Z,1.15
2022-07-29T11:40:26.057Z,1.52
2022-07-29T11:42:55.016Z,0.90
2022-07-29T11:45:43.082Z,1.40
2022-07-29T11:48:31.957Z,1.30
2022-07-29T11:51:11.886Z,1.02
2022-07-29T11:53:41.838Z,0.93
2022-07-29T11:56:11.339Z,1.88
2022-07-29T11:58:47.594Z,1.23
2022-07-29T12:01:19.569Z,1.02
2022-07-29T12:03:50.993Z,0.95
2022-07-29T12:06:21.083Z,1.23
2022-07-29T12:08:49.523Z,1.38
2022-07-29T12:11:20.466Z,1.50
2022-07-29T12:13:50.786Z,1.67
2022-07-29T12:16:27.980Z,1.00
2022-07-29T12:19:02.347Z,1.17
2022-07-29T12:21:31.411Z,0.95
2022-07-29T12:24:09.188Z,0.90
2022-07-29T12:26:40.491Z,1.50
2022-07-29T12:29:20.214Z,0.90
2022-07-29T12:32:01.953Z,1.40
2022-07-29T12:34:32.286Z,1.02
2022-07-29T12:37:00.594Z,1.00
2022-07-29T12:39:29.279Z,0.90
2022-07-29T12:42:04.794Z,1.00
2022-07-29T12:44:46.704Z,2.50
2022-07-29T12:47:14.954Z,0.85
2022-07-29T12:49:44.929Z,0.95
2022-07-29T12:52:27.149Z,2.75
2022-07-29T12:54:55.461Z,1.45
2022-07-29T12:57:26.696Z,1.08
2022-07-29T13:00:06.728Z,1.17
2022-07-29T13:02:35.362Z,1.70
2022-07-29T13:05:09.418Z,16.73
2022-07-29T13:07:53.944Z,24.80
2022-07-29T13:10:25.039Z,24.40
2022-07-29T13:13:08.999Z,6.25
2022-07-29T13:15:38.250Z,1.23
2022-07-29T13:18:07.194Z,1.15
2022-07-29T13:20:37.232Z,1.10
2022-07-29T13:25:41.745Z,0.80
2022-07-29T13:28:09.723Z,0.85
2022-07-29T13:30:38.614Z,0.80
2022-07-29T13:33:13.022Z,0.63
2022-07-29T13:35:42.270Z,1.08
2022-07-29T13:38:10.608Z,1.90
2022-07-29T13:40:38.697Z,0.70
2022-07-29T13:43:07.032Z,0.82
2022-07-29T13:45:35.189Z,0.65
2022-07-29T13:48:03.783Z,0.90
2022-07-29T13:50:31.865Z,0.70
2022-07-29T13:53:04.135Z,0.68
2022-07-29T13:55:37.139Z,0.82
2022-07-29T13:58:07.843Z,1.20
2022-07-29T14:00:35.931Z,0.90
2022-07-29T14:03:07.543Z,1.17
2022-07-29T14:05:35.623Z,2.35
2022-07-29T14:08:07.805Z,0.98
2022-07-29T14:10:38.093Z,1.45
2022-07-29T14:13:06.419Z,0.70
2022-07-29T14:15:52.926Z,1.00
2022-07-29T14:18:23.676Z,3.25
2022-07-29T14:20:52.286Z,0.88
2022-07-29T14:23:22.001Z,0.90
2022-07-29T14:25:52.360Z,1.00
2022-07-29T14:28:21.739Z,0.60
2022-07-29T14:30:50.056Z,1.15
2022-07-29T14:33:18.434Z,0.60
2022-07-29T14:35:46.708Z,1.25
2022-07-29T14:38:14.978Z,1.08
2022-07-29T14:40:44.419Z,0.52
2022-07-29T14:43:12.794Z,1.80
2022-07-29T14:45:40.877Z,1.00
2022-07-29T14:48:09.433Z,0.77
2022-07-29T14:50:37.698Z,0.43
2022-07-29T14:53:08.281Z,0.75
2022-07-29T14:55:36.592Z,1.00
2022-07-29T14:58:12.080Z,1.20
2022-07-29T15:00:43.202Z,0.50
2022-07-29T15:03:11.862Z,0.70
2022-07-29T15:05:40.335Z,0.65
2022-07-29T15:08:09.655Z,0.63
2022-07-29T15:10:40.245Z,1.00
2022-07-29T15:13:12.195Z,0.80
2022-07-29T15:15:40.988Z,0.82
2022-07-29T15:18:10.031Z,0.52
2022-07-29T15:20:40.442Z,1.20
2022-07-29T15:23:10.365Z,0.50
2022-07-29T15:28:27.354Z,0.85
2022-07-29T15:30:57.938Z,0.90
2022-07-29T15:33:25.928Z,0.65
2022-07-29T15:35:54.336Z,0.80
2022-07-29T15:38:28.617Z,0.73
2022-07-29T15:40:57.329Z,0.95
2022-07-29T15:43:26.069Z,0.90
2022-07-29T15:46:13.406Z,1.70
2022-07-29T15:48:44.074Z,1.30
2022-07-29T15:51:14.607Z,1.27
2022-07-29T15:53:42.589Z,0.77
2022-07-29T15:56:13.294Z,0.63
2022-07-29T15:58:44.771Z,0.82
2022-07-29T16:01:19.560Z,0.80
2022-07-29T16:03:47.663Z,0.95
2022-07-29T16:06:16.251Z,0.50
2022-07-29T16:08:44.689Z,1.63
2022-07-29T16:11:13.171Z,0.77
2022-07-29T16:13:41.211Z,1.20
2022-07-29T16:16:09.865Z,2.08
2022-07-29T16:18:39.324Z,1.10
2022-07-29T16:21:07.814Z,0.50
2022-07-29T16:23:36.197Z,0.75
2022-07-29T16:26:05.600Z,1.17
2022-07-29T16:28:33.822Z,0.70
2022-07-29T16:31:04.508Z,0.93
2022-07-29T16:33:54.752Z,0.60
2022-07-29T16:36:24.677Z,0.63
2022-07-29T16:38:52.858Z,0.90
2022-07-29T16:41:21.283Z,0.68
2022-07-29T16:43:51.686Z,1.25
2022-07-29T16:46:21.677Z,0.75
2022-07-29T16:48:54.504Z,0.95
2022-07-29T16:51:24.852Z,1.48
2022-07-29T16:53:52.879Z,1.88
2022-07-29T16:56:21.382Z,1.10
2022-07-29T16:58:51.940Z,1.00
2022-07-29T17:01:20.393Z,1.02
2022-07-29T17:04:05.639Z,0.70
2022-07-29T17:06:35.976Z,3.70
2022-07-29T17:09:05.653Z,1.20
2022-07-29T17:11:52.942Z,0.70
2022-07-29T17:14:27.168Z,0.73
2022-07-29T17:17:01.245Z,1.10
2022-07-29T17:19:31.687Z,0.73
2022-07-29T17:22:10.439Z,1.10
2022-07-29T17:24:41.264Z,0.82
2022-07-29T17:27:11.960Z,1.00
2022-07-29T17:29:40.698Z,0.70
2022-07-29T17:32:10.328Z,0.75
2022-07-29T17:34:39.059Z,1.10
2022-07-29T17:37:10.808Z,0.73
2022-07-29T17:39:40.846Z,1.38
2022-07-29T17:42:12.857Z,0.45
2022-07-29T17:44:41.653Z,0.43
2022-07-29T17:47:15.814Z,0.60
2022-07-29T17:49:45.366Z,0.63
2022-07-29T17:52:16.036Z,0.70
2022-07-29T17:54:44.134Z,0.88
2022-07-29T17:57:12.217Z,0.73
2022-07-29T17:59:40.271Z,1.02
2022-07-29T18:02:10.148Z,1.30
2022-07-29T18:04:38.334Z,1.60
2022-07-29T18:07:06.879Z,0.75
2022-07-29T18:09:40.074Z,0.70
2022-07-29T18:12:09.495Z,0.90
2022-07-29T18:14:37.531Z,0.90
2022-07-29T18:17:08.081Z,1.25
2022-07-29T18:19:38.645Z,0.88
2022-07-29T18:22:11.460Z,1.08
2022-07-29T18:24:40.959Z,0.90
2022-07-29T18:27:12.149Z,0.80
2022-07-29T18:29:42.443Z,1.27
2022-07-29T18:32:13.091Z,0.90
2022-07-29T18:34:41.142Z,0.90
2022-07-29T18:37:09.246Z,0.90
2022-07-29T18:39:37.425Z,0.93
2022-07-29T18:42:07.876Z,0.77
2022-07-29T18:44:43.595Z,1.33
2022-07-29T18:47:15.102Z,0.70
2022-07-29T18:49:43.258Z,0.77
2022-07-29T18:52:12.573Z,0.90
2022-07-29T18:54:43.084Z,1.00
2022-07-29T18:57:55.643Z,0.80
2022-07-29T19:00:00.935Z,1.02
2022-07-29T19:02:29.393Z,0.98
2022-07-29T19:04:57.676Z,1.65
2022-07-29T19:07:26.915Z,0.65
2022-07-29T19:09:55.266Z,1.48
2022-07-29T19:12:24.619Z,0.85
2022-07-29T19:14:52.973Z,1.92
2022-07-29T19:17:21.158Z,1.00
2022-07-29T19:19:53.759Z,0.90
2022-07-29T19:22:24.698Z,1.38
2022-07-29T19:24:53.292Z,0.73
2022-07-29T19:27:21.461Z,1.10
2022-07-29T19:29:51.297Z,1.00
2022-07-29T19:32:25.404Z,0.88
2022-07-29T19:35:22.357Z,0.90
2022-07-29T19:37:50.991Z,0.63
2022-07-29T19:40:19.396Z,0.90
2022-07-29T19:42:51.173Z,2.17
2022-07-29T19:45:20.811Z,1.10
2022-07-29T19:47:50.333Z,4.00
2022-07-29T19:50:19.499Z,1.10
2022-07-29T19:52:48.133Z,0.70
2022-07-29T19:55:18.765Z,1.02
2022-07-29T19:57:47.620Z,1.00
2022-07-29T20:00:17.326Z,0.65
2022-07-29T20:02:51.748Z,0.50
2022-07-29T20:05:21.974Z,1.08
2022-07-29T20:07:56.471Z,0.70
2022-07-29T20:10:25.360Z,0.75
2022-07-29T20:12:56.100Z,0.95
2022-07-29T20:15:25.724Z,0.73
2022-07-29T20:17:57.438Z,0.80
2022-07-29T20:20:26.320Z,1.10
2022-07-29T20:22:55.004Z,0.90
2022-07-29T20:25:23.591Z,0.88
2022-07-29T20:29:27.751Z,1.15
2022-07-29T20:31:56.828Z,0.75
2022-07-29T20:34:27.271Z,0.88
2022-07-29T20:36:58.760Z,2.08
2022-07-29T20:39:28.042Z,0.93
2022-07-29T20:41:56.216Z,1.00
2022-07-29T20:44:24.889Z,1.52
2022-07-29T20:46:54.230Z,1.48
2022-07-29T20:49:22.638Z,1.70
2022-07-29T20:51:50.735Z,1.33
2022-07-29T20:54:19.081Z,0.80
2022-07-29T20:56:47.467Z,0.88
2022-07-29T20:59:17.665Z,0.73
2022-07-29T21:01:46.241Z,1.08
2022-07-29T21:04:18.714Z,1.45
2022-07-29T21:06:47.207Z,0.55
2022-07-29T21:09:17.933Z,0.60
2022-07-29T21:11:48.878Z,1.20
2022-07-29T21:14:27.658Z,1.35
2022-07-29T21:16:56.073Z,0.90
2022-07-29T21:19:26.235Z,0.77
2022-07-29T21:21:54.579Z,1.30
2022-07-29T21:24:22.990Z,0.80
2022-07-29T21:27:18.250Z,1.38
2022-07-29T21:29:38.129Z,0.57
2022-07-29T21:32:07.057Z,1.00
2022-07-29T21:34:37.060Z,0.77
2022-07-29T21:37:05.459Z,0.80
2022-07-29T21:39:35.200Z,1.85
2022-07-29T21:42:03.241Z,0.85
2022-07-29T21:44:31.498Z,0.90
2022-07-29T21:47:00.006Z,1.20
2022-07-29T21:49:28.288Z,0.70
2022-07-29T21:51:57.816Z,0.75
2022-07-29T21:54:26.214Z,0.98
2022-07-29T21:56:56.339Z,0.70
2022-07-29T21:59:26.276Z,0.60
2022-07-29T22:01:54.528Z,0.70
2022-07-29T22:04:23.336Z,0.93
2022-07-29T22:06:51.828Z,0.60
2022-07-29T22:09:21.178Z,0.80
2022-07-29T22:11:52.231Z,0.70
2022-07-29T22:14:20.811Z,0.90
2022-07-29T22:16:51.110Z,1.00
2022-07-29T22:19:19.548Z,0.73
2022-07-29T22:21:47.888Z,0.70
2022-07-29T22:24:17.128Z,1.08
2022-07-29T22:26:46.858Z,0.95
2022-07-29T22:29:17.540Z,0.60
2022-07-29T22:31:46.507Z,1.10
2022-07-29T22:34:14.759Z,0.80
2022-07-29T22:36:45.084Z,0.70
2022-07-29T22:39:15.677Z,1.10
2022-07-29T22:41:44.479Z,1.00
2022-07-29T22:44:13.851Z,0.90
2022-07-29T22:46:42.341Z,0.80
2022-07-29T22:49:10.664Z,1.20
2022-07-29T22:51:38.916Z,0.85
2022-07-29T22:54:07.409Z,0.98
2022-07-29T22:56:37.791Z,0.90
2022-07-29T22:59:06.090Z,0.70
2022-07-29T23:01:38.379Z,0.90
2022-07-29T23:04:07.151Z,1.02
2022-07-29T23:06:35.856Z,0.90
2022-07-29T23:09:04.375Z,1.85
2022-07-29T23:11:32.795Z,0.85
2022-07-29T23:14:03.411Z,1.00
2022-07-29T23:16:31.685Z,0.88
2022-07-29T23:19:02.625Z,1.55
2022-07-29T23:21:31.394Z,1.05
2022-07-29T23:23:59.570Z,0.98
2022-07-29T23:26:30.180Z,1.23
2022-07-29T23:28:58.507Z,0.80
2022-07-29T23:31:26.885Z,0.90
2022-07-29T23:33:55.066Z,1.50
2022-07-29T23:36:27.145Z,0.80
2022-07-29T23:38:57.388Z,1.30
2022-07-29T23:41:30.247Z,1.08
2022-07-29T23:43:59.079Z,0.80
2022-07-29T23:46:27.254Z,1.02
2022-07-29T23:48:58.046Z,1.00
2022-07-29T23:51:30.076Z,0.68
2022-07-29T23:54:00.932Z,0.80
2022-07-29T23:56:29.022Z,1.05
2022-07-29T23:58:57.264Z,0.70
